Big Bear Station Historical Data
Daily Summary for May 14, 2019 Units:  English    Metric   Both
Next Day »
Daily Weekly Monthly Yearly Custom
  High: Low: Average:
Temperature: 69.8 °F 37.8 °F 53.8 °F
Dew Point: 45.5 °F 30.1 °F 36.5 °F
Humidity: 88% 27% 56%
Wind Speed: 9.4mph 0mph 1.8mph
Wind Gust: -999mph - -
Wind- - SW
Pressure: 23.58 in 23.51 in -
Precipitation: 0 in    
Historical Graphs
 
 
Tabular Data for May 14, 2019
Time Temperature Dew Point Pressure Wind Wind Speed Wind Gust Humidity Rainfall Rate (Hourly)
00:05 44.2 °F 37.1 °F 23.55 in Calm   -999 mph 76% 0.00 in
00:20 43.9 °F 34.4 °F 23.55 in Calm   -999 mph 69% 0.00 in
00:36 43.7 °F 34.2 °F 23.56 in Calm   -999 mph 69% 0.00 in
00:51 43.2 °F 35.8 °F 23.55 in Calm   -999 mph 75% 0.00 in
01:06 43.3 °F 36.6 °F 23.55 in Calm   -999 mph 77% 0.00 in
01:22 43 °F 36 °F 23.55 in Calm   -999 mph 76% 0.00 in
01:37 42.6 °F 36.5 °F 23.54 in Calm   -999 mph 79% 0.00 in
01:52 42.4 °F 36.7 °F 23.54 in Calm   -999 mph 80% 0.00 in
02:07 41.9 °F 36.5 °F 23.54 in Calm   -999 mph 81% 0.00 in
02:22 41.7 °F 37.2 °F 23.54 in Calm   -999 mph 84% 0.00 in
02:38 41.4 °F 37.2 °F 23.54 in Calm   -999 mph 85% 0.00 in
02:53 41 °F 36.8 °F 23.54 in Calm   -999 mph 85% 0.00 in
03:09 40.5 °F 36.3 °F 23.54 in Calm   -999 mph 85% 0.00 in
03:24 40.3 °F 35.9 °F 23.54 in Calm   -999 mph 84% 0.00 in
03:39 40.1 °F 35.7 °F 23.54 in Calm   -999 mph 84% 0.00 in
03:54 39.7 °F 35.9 °F 23.54 in Calm   -999 mph 86% 0.00 in
04:09 39.6 °F 35.5 °F 23.54 in Calm   -999 mph 85% 0.00 in
04:25 39.4 °F 35.6 °F 23.54 in Calm   -999 mph 86% 0.00 in
04:40 39.2 °F 35.7 °F 23.53 in Calm   -999 mph 87% 0.00 in
04:55 38.8 °F 35.3 °F 23.53 in Calm   -999 mph 87% 0.00 in
05:10 38.7 °F 34.9 °F 23.53 in Calm   -999 mph 86% 0.00 in
05:25 38.1 °F 34.3 °F 23.54 in Calm   -999 mph 86% 0.00 in
05:41 38.3 °F 34.5 °F 23.54 in Calm   -999 mph 86% 0.00 in
05:56 37.9 °F 34.7 °F 23.54 in Calm   -999 mph 88% 0.00 in
06:11 37.9 °F 34.4 °F 23.54 in Calm   -999 mph 87% 0.00 in
06:26 37.8 °F 34.6 °F 23.54 in Calm   -999 mph 88% 0.00 in
06:41 38.1 °F 34.6 °F 23.55 in Calm   -999 mph 87% 0.00 in
06:57 38.5 °F 35 °F 23.55 in Calm   -999 mph 87% 0.00 in
07:12 39 °F 35.7 °F 23.55 in Calm   -999 mph 88% 0.00 in
07:27 39.7 °F 36.4 °F 23.55 in Calm   -999 mph 88% 0.00 in
07:57 42.3 °F 39 °F 23.55 in Calm   -999 mph 88% 0.00 in
08:13 45.7 °F 37.9 °F 23.56 in Calm   -999 mph 74% 0.00 in
08:28 49.8 °F 33.8 °F 23.55 in Calm   -999 mph 54% 0.00 in
08:43 52.7 °F 33.6 °F 23.55 in SSE 1.1 mph -999 mph 48% 0.00 in
08:58 55 °F 31.7 °F 23.56 in SSE 2.7 mph -999 mph 41% 0.00 in
09:13 56.5 °F 31.8 °F 23.56 in SSW 4.7 mph -999 mph 39% 0.00 in
09:29 58.1 °F 32.6 °F 23.56 in Calm   -999 mph 38% 0.00 in
09:44 58.8 °F 33.2 °F 23.56 in NW 2.7 mph -999 mph 38% 0.00 in
10:00 59.7 °F 32.7 °F 23.56 in NW 7.3 mph -999 mph 36% 0.00 in
10:15 60.3 °F 31.8 °F 23.56 in ESE 2.7 mph -999 mph 34% 0.00 in
10:30 60.8 °F 31.5 °F 23.56 in North 6.8 mph -999 mph 33% 0.00 in
10:45 62.4 °F 32.9 °F 23.56 in ESE 3.2 mph -999 mph 33% 0.00 in
11:01 63.3 °F 31.3 °F 23.57 in NW 5.3 mph -999 mph 30% 0.00 in
11:16 64.8 °F 31.8 °F 23.57 in SSE 3.7 mph -999 mph 29% 0.00 in
11:31 62.8 °F 30.1 °F 23.57 in SSW 4.7 mph -999 mph 29% 0.00 in
11:46 65.7 °F 35 °F 23.58 in NNW 5.8 mph -999 mph 32% 0.00 in
12:01 65.1 °F 35.3 °F 23.58 in NW 4.7 mph -999 mph 33% 0.00 in
12:17 66.9 °F 34.5 °F 23.57 in SE 6.3 mph -999 mph 30% 0.00 in
12:32 67.3 °F 33.1 °F 23.57 in NNW 1.7 mph -999 mph 28% 0.00 in
12:47 65.5 °F 32.4 °F 23.57 in SSW 4.7 mph -999 mph 29% 0.00 in
13:02 67.1 °F 34.6 °F 23.56 in East 4.2 mph -999 mph 30% 0.00 in
13:17 68.9 °F 36.2 °F 23.56 in ESE 4.7 mph -999 mph 30% 0.00 in
13:33 68.7 °F 35.2 °F 23.56 in West 3.2 mph -999 mph 29% 0.00 in
13:49 67.3 °F 32.2 °F 23.56 in South 4.7 mph -999 mph 27% 0.00 in
14:04 69.1 °F 37.2 °F 23.56 in West 8.3 mph -999 mph 31% 0.00 in
14:19 67.1 °F 32.9 °F 23.55 in NE 4.7 mph -999 mph 28% 0.00 in
14:35 66.6 °F 35.8 °F 23.55 in NNW 9.4 mph -999 mph 32% 0.00 in
14:50 65.8 °F 35.1 °F 23.55 in SE 3.7 mph -999 mph 32% 0.00 in
15:05 66.7 °F 36.7 °F 23.54 in WNW 5.8 mph -999 mph 33% 0.00 in
15:20 66.4 °F 37.9 °F 23.54 in ESE 3.2 mph -999 mph 35% 0.00 in
15:37 66.7 °F 38.9 °F 23.54 in NW 2.2 mph -999 mph 36% 0.00 in
15:52 66.7 °F 40.3 °F 23.54 in SSE 3.2 mph -999 mph 38% 0.00 in
16:07 65.5 °F 39.9 °F 23.54 in South 2.7 mph -999 mph 39% 0.00 in
16:22 65.5 °F 40.5 °F 23.54 in ESE 4.2 mph -999 mph 40% 0.00 in
16:37 67.1 °F 42 °F 23.54 in SE 2.7 mph -999 mph 40% 0.00 in
16:53 68.7 °F 42.7 °F 23.53 in WNW 2.7 mph -999 mph 39% 0.00 in
17:08 69.8 °F 43.7 °F 23.52 in West 2.2 mph -999 mph 39% 0.00 in
17:24 68.7 °F 44.1 °F 23.52 in SSW 1.1 mph -999 mph 41% 0.00 in
17:39 68.9 °F 45.5 °F 23.52 in ESE 1.1 mph -999 mph 43% 0.00 in
17:55 66.9 °F 44.3 °F 23.52 in SW 1.7 mph -999 mph 44% 0.00 in
18:10 66.2 °F 44.2 °F 23.52 in West 2.7 mph -999 mph 45% 0.00 in
18:25 63.7 °F 44.2 °F 23.52 in Calm   -999 mph 49% 0.00 in
18:40 62.6 °F 42.1 °F 23.51 in WNW 6.3 mph -999 mph 47% 0.00 in
18:56 60.6 °F 41.9 °F 23.51 in SSW 1.1 mph -999 mph 50% 0.00 in
19:11 58.3 °F 41.2 °F 23.51 in Calm   -999 mph 53% 0.00 in
19:26 56.7 °F 39.3 °F 23.51 in NW 2.7 mph -999 mph 52% 0.00 in
19:41 55.6 °F 40.1 °F 23.51 in Calm   -999 mph 56% 0.00 in
19:57 54.7 °F 38.8 °F 23.51 in Calm   -999 mph 55% 0.00 in
20:12 54.1 °F 36.4 °F 23.51 in SE 1.7 mph -999 mph 51% 0.00 in
20:27 53.6 °F 36.4 °F 23.52 in ENE 1.7 mph -999 mph 52% 0.00 in
20:43 53.2 °F 34.5 °F 23.52 in Calm   -999 mph 49% 0.00 in
20:58 53.4 °F 36.7 °F 23.52 in North 2.7 mph -999 mph 53% 0.00 in
21:14 52.7 °F 35.1 °F 23.52 in Calm   -999 mph 51% 0.00 in
21:29 52.5 °F 34.4 °F 23.53 in NW 3.2 mph -999 mph 50% 0.00 in
21:44 52.5 °F 33.4 °F 23.53 in ESE 1.7 mph -999 mph 48% 0.00 in
21:59 52 °F 33.9 °F 23.53 in Calm   -999 mph 50% 0.00 in
22:14 51.4 °F 36.2 °F 23.53 in WNW 1.7 mph -999 mph 56% 0.00 in
22:30 50.7 °F 39.4 °F 23.53 in Calm   -999 mph 65% 0.00 in
22:45 50.5 °F 38 °F 23.52 in Calm   -999 mph 62% 0.00 in
23:00 50.5 °F 39.6 °F 23.52 in Calm   -999 mph 66% 0.00 in
23:16 50.7 °F 40.5 °F 23.52 in Calm   -999 mph 68% 0.00 in
23:31 50.5 °F 37.5 °F 23.51 in West 2.2 mph -999 mph 61% 0.00 in
23:46 50.2 °F 37.3 °F 23.51 in Calm   -999 mph 61% 0.00 in
Big Bear CA Weather